createdAt,value
2019-03-19T00:00:58.986Z,9.27
2019-03-19T00:03:29.658Z,6.83
2019-03-19T00:06:01.201Z,10.43
2019-03-19T00:08:30.951Z,10.57
2019-03-19T00:11:00.645Z,10.47
2019-03-19T00:13:30.312Z,8.57
2019-03-19T00:15:59.996Z,9.10
2019-03-19T00:18:29.683Z,6.97
2019-03-19T00:20:59.322Z,8.67
2019-03-19T00:23:28.988Z,13.40
2019-03-19T00:25:58.651Z,8.73
2019-03-19T00:28:28.302Z,6.97
2019-03-19T00:30:58.039Z,7.10
2019-03-19T00:33:27.705Z,6.03
2019-03-19T00:35:57.370Z,6.17
2019-03-19T00:38:27.852Z,7.10
2019-03-19T00:40:57.510Z,6.77
2019-03-19T00:43:27.177Z,7.73
2019-03-19T00:45:56.843Z,5.83
2019-03-19T00:48:26.503Z,9.20
2019-03-19T00:50:57.126Z,9.40
2019-03-19T00:53:26.794Z,13.93
2019-03-19T00:55:56.455Z,22.33
2019-03-19T00:58:26.132Z,29.27
2019-03-19T01:00:55.869Z,28.13
2019-03-19T01:03:25.545Z,36.37
2019-03-19T01:05:55.212Z,35.93
2019-03-19T01:08:25.135Z,35.90
2019-03-19T01:10:55.332Z,41.93
2019-03-19T01:13:25.965Z,32.37
2019-03-19T01:15:55.780Z,25.23
2019-03-19T01:18:25.451Z,14.10
2019-03-19T01:20:55.361Z,10.53
2019-03-19T01:23:25.037Z,7.47
2019-03-19T01:25:55.879Z,14.33
2019-03-19T01:28:25.868Z,14.90
2019-03-19T01:30:55.533Z,9.27
2019-03-19T01:33:25.222Z,8.80
2019-03-19T01:35:54.926Z,7.67
2019-03-19T01:38:24.585Z,10.03
2019-03-19T01:40:54.499Z,12.27
2019-03-19T01:43:24.397Z,9.27
2019-03-19T01:45:54.077Z,8.70
2019-03-19T01:48:23.728Z,8.57
2019-03-19T01:50:53.403Z,12.17
2019-03-19T01:53:23.318Z,14.30
2019-03-19T01:55:52.980Z,11.43
2019-03-19T01:58:22.633Z,8.10
2019-03-19T02:00:52.572Z,10.47
2019-03-19T02:03:22.235Z,9.30
2019-03-19T02:05:52.185Z,10.97
2019-03-19T02:08:22.077Z,18.50
2019-03-19T02:10:52.011Z,13.40
2019-03-19T02:13:21.688Z,11.18
2019-03-19T02:15:51.344Z,7.73
2019-03-19T02:18:21.014Z,7.33
2019-03-19T02:20:50.679Z,9.57
2019-03-19T02:23:20.337Z,9.08
2019-03-19T02:25:50.167Z,7.03
2019-03-19T02:28:19.839Z,10.40
2019-03-19T02:30:49.764Z,9.80
2019-03-19T02:33:19.918Z,7.50
2019-03-19T02:35:49.554Z,11.13
2019-03-19T02:38:19.563Z,10.33
2019-03-19T02:40:49.223Z,9.80
2019-03-19T02:43:18.888Z,14.03
2019-03-19T02:45:48.774Z,10.70
2019-03-19T02:48:18.437Z,11.03
2019-03-19T02:50:48.142Z,11.50
2019-03-19T02:53:17.797Z,9.40
2019-03-19T02:55:48.434Z,9.57
2019-03-19T02:58:18.082Z,9.27
2019-03-19T03:00:48.111Z,12.97
2019-03-19T03:03:17.774Z,11.73
2019-03-19T03:05:47.433Z,7.93
2019-03-19T03:08:17.114Z,8.53
2019-03-19T03:10:47.014Z,9.07
2019-03-19T03:13:17.678Z,10.43
2019-03-19T03:15:47.328Z,6.67
2019-03-19T03:18:16.987Z,8.90
2019-03-19T03:20:46.681Z,8.70
2019-03-19T03:23:16.336Z,7.00
2019-03-19T03:25:46.072Z,9.93
2019-03-19T03:28:15.981Z,7.78
2019-03-19T03:30:45.657Z,10.33
2019-03-19T03:33:15.461Z,7.03
2019-03-19T03:35:46.317Z,10.80
2019-03-19T03:38:15.984Z,12.33
2019-03-19T03:40:45.644Z,8.90
2019-03-19T03:43:15.656Z,9.37
2019-03-19T03:45:45.308Z,7.03
2019-03-19T03:48:15.072Z,7.63
2019-03-19T03:50:44.723Z,6.27
2019-03-19T03:53:14.384Z,11.97
2019-03-19T03:55:44.095Z,10.50
2019-03-19T03:58:13.764Z,9.35
2019-03-19T04:00:43.654Z,7.37
2019-03-19T04:03:13.589Z,8.50
2019-03-19T04:05:43.395Z,8.07
2019-03-19T04:08:13.058Z,9.95
2019-03-19T04:10:42.739Z,13.63
2019-03-19T04:13:12.411Z,17.73
2019-03-19T04:15:42.080Z,17.00
2019-03-19T04:18:11.781Z,10.53
2019-03-19T04:20:41.440Z,10.43
2019-03-19T04:23:11.092Z,8.40
2019-03-19T04:25:40.905Z,8.30
2019-03-19T04:28:10.562Z,10.67
2019-03-19T04:30:40.234Z,9.00
2019-03-19T04:33:09.894Z,6.67
2019-03-19T04:35:42.101Z,7.00
2019-03-19T04:38:11.011Z,21.47
2019-03-19T04:40:40.680Z,15.03
2019-03-19T04:43:10.591Z,12.43
2019-03-19T04:45:40.257Z,11.97
2019-03-19T04:48:09.938Z,9.37
2019-03-19T04:50:39.593Z,9.30
2019-03-19T04:53:09.255Z,12.37
2019-03-19T04:55:38.942Z,11.70
2019-03-19T04:58:08.683Z,6.10
2019-03-19T05:00:38.350Z,7.30
2019-03-19T05:03:08.416Z,8.53
2019-03-19T05:05:38.062Z,7.90
2019-03-19T05:08:07.734Z,7.43
2019-03-19T05:10:37.390Z,6.63
2019-03-19T05:13:07.135Z,6.30
2019-03-19T05:15:38.091Z,8.40
2019-03-19T05:18:07.754Z,9.10
2019-03-19T05:20:37.428Z,9.97
2019-03-19T05:23:07.103Z,13.53
2019-03-19T05:25:36.773Z,10.80
2019-03-19T05:28:06.442Z,9.67
2019-03-19T05:30:36.115Z,10.67
2019-03-19T05:33:05.792Z,10.47
2019-03-19T05:35:35.454Z,13.63
2019-03-19T05:38:06.490Z,8.03
2019-03-19T05:40:36.222Z,8.07
2019-03-19T05:43:06.355Z,9.53
2019-03-19T05:45:36.264Z,8.50
2019-03-19T05:48:06.005Z,8.83
2019-03-19T05:50:35.702Z,7.27
2019-03-19T05:53:05.449Z,7.60
2019-03-19T05:55:35.104Z,6.97
2019-03-19T05:58:05.073Z,7.83
2019-03-19T06:00:35.491Z,9.07
2019-03-19T06:03:05.231Z,8.87
2019-03-19T06:05:34.960Z,6.10
2019-03-19T06:08:04.965Z,10.73
2019-03-19T06:10:34.618Z,9.65
2019-03-19T06:13:05.211Z,6.27
2019-03-19T06:15:34.863Z,12.20
2019-03-19T06:18:05.710Z,14.78
2019-03-19T06:20:35.371Z,18.17
2019-03-19T06:23:05.260Z,15.30
2019-03-19T06:25:34.998Z,12.95
2019-03-19T06:28:05.102Z,14.75
2019-03-19T06:30:34.760Z,10.70
2019-03-19T06:33:05.306Z,12.35
2019-03-19T06:35:34.975Z,14.27
2019-03-19T06:38:05.442Z,14.43
2019-03-19T06:40:35.171Z,14.60
2019-03-19T06:43:05.032Z,11.43
2019-03-19T06:45:34.707Z,12.70
2019-03-19T06:48:05.116Z,14.55
2019-03-19T06:50:44.737Z,11.87
2019-03-19T06:53:06.227Z,13.97
2019-03-19T06:55:36.140Z,20.27
2019-03-19T06:58:11.027Z,12.87
2019-03-19T07:00:39.440Z,16.30
2019-03-19T07:03:09.111Z,17.57
2019-03-19T07:05:38.882Z,15.53
2019-03-19T07:08:08.549Z,10.07
2019-03-19T07:10:38.216Z,14.97
2019-03-19T07:13:08.220Z,11.67
2019-03-19T07:15:37.871Z,12.30
2019-03-19T07:18:07.578Z,14.67
2019-03-19T07:20:37.257Z,16.50
2019-03-19T07:23:07.010Z,12.43
2019-03-19T07:25:36.685Z,13.77
2019-03-19T07:28:06.489Z,16.10
2019-03-19T07:30:36.471Z,15.57
2019-03-19T07:33:06.220Z,14.57
2019-03-19T07:35:35.911Z,20.90
2019-03-19T07:38:05.876Z,15.70
2019-03-19T07:40:35.540Z,15.57
2019-03-19T07:43:05.364Z,13.80
2019-03-19T07:45:35.047Z,13.30
2019-03-19T07:48:04.934Z,14.13
2019-03-19T07:50:34.593Z,20.10
2019-03-19T07:53:05.325Z,16.32
2019-03-19T07:55:35.236Z,18.00
2019-03-19T07:58:05.424Z,15.08
2019-03-19T08:00:35.452Z,17.33
2019-03-19T08:03:15.554Z,16.45
2019-03-19T08:05:37.088Z,15.27
2019-03-19T08:08:07.044Z,16.70
2019-03-19T08:10:36.706Z,11.77
2019-03-19T08:13:06.435Z,18.07
2019-03-19T08:15:36.384Z,19.17
2019-03-19T08:18:06.187Z,15.63
2019-03-19T08:20:35.897Z,17.90
2019-03-19T08:23:05.893Z,16.17
2019-03-19T08:25:35.553Z,23.97
2019-03-19T08:28:05.347Z,17.27
2019-03-19T08:30:35.019Z,13.27
2019-03-19T08:33:05.120Z,12.53
2019-03-19T08:35:34.788Z,17.43
2019-03-19T08:38:04.737Z,17.83
2019-03-19T08:40:34.393Z,13.27
2019-03-19T08:43:05.151Z,14.83
2019-03-19T08:45:34.837Z,11.57
2019-03-19T08:48:05.099Z,12.93
2019-03-19T08:50:35.007Z,14.37
2019-03-19T08:53:05.392Z,9.23
2019-03-19T08:55:35.051Z,11.87
2019-03-19T08:58:05.260Z,10.75
2019-03-19T09:00:35.158Z,11.93
2019-03-19T09:03:05.149Z,11.75
2019-03-19T09:05:34.838Z,13.87
2019-03-19T09:08:05.272Z,12.55
2019-03-19T09:10:35.174Z,11.23
2019-03-19T09:13:04.971Z,14.90
2019-03-19T09:15:34.712Z,16.87
2019-03-19T09:18:05.065Z,12.37
2019-03-19T09:20:35.033Z,10.70
2019-03-19T09:23:05.335Z,15.18
2019-03-19T09:25:35.084Z,10.97
2019-03-19T09:28:04.905Z,12.10
2019-03-19T09:30:34.636Z,10.43
2019-03-19T09:33:04.967Z,11.43
2019-03-19T09:35:34.627Z,11.60
2019-03-19T09:38:05.355Z,10.33
2019-03-19T09:40:35.023Z,10.95
2019-03-19T09:43:05.551Z,10.48
2019-03-19T09:45:35.210Z,8.50
2019-03-19T09:48:05.024Z,7.72
2019-03-19T09:50:34.674Z,7.23
2019-03-19T09:53:05.189Z,8.63
2019-03-19T09:55:34.908Z,8.77
2019-03-19T09:58:05.556Z,10.53
2019-03-19T10:00:35.316Z,10.00
2019-03-19T10:03:05.060Z,8.30
2019-03-19T10:05:34.743Z,9.37
2019-03-19T10:08:05.107Z,10.03
2019-03-19T10:10:34.833Z,9.90
2019-03-19T10:13:05.413Z,6.97
2019-03-19T10:15:35.076Z,14.57
2019-03-19T10:18:05.471Z,9.90
2019-03-19T10:20:35.235Z,7.77
2019-03-19T10:23:05.105Z,9.47
2019-03-19T10:25:34.765Z,13.13
2019-03-19T10:28:05.649Z,9.08
2019-03-19T10:30:35.394Z,5.73
2019-03-19T10:33:05.706Z,10.13
2019-03-19T10:35:35.621Z,8.70
2019-03-19T10:38:05.467Z,6.20
2019-03-19T10:40:35.095Z,8.57
2019-03-19T10:43:05.197Z,3.73
2019-03-19T10:45:35.029Z,6.57
2019-03-19T10:48:05.307Z,5.95
2019-03-19T10:50:35.119Z,8.17
2019-03-19T10:53:05.088Z,7.40
2019-03-19T10:55:34.768Z,7.93
2019-03-19T10:58:11.021Z,8.33
2019-03-19T11:00:37.173Z,8.43
2019-03-19T11:03:06.940Z,6.70
2019-03-19T11:05:36.619Z,5.63
2019-03-19T11:08:06.559Z,4.90
2019-03-19T11:10:36.471Z,8.57
2019-03-19T11:13:06.124Z,6.83
2019-03-19T11:15:35.989Z,6.27
2019-03-19T11:18:05.877Z,5.47
2019-03-19T11:20:35.947Z,4.90
2019-03-19T11:23:05.755Z,8.73
2019-03-19T11:25:35.429Z,5.33
2019-03-19T11:28:05.531Z,6.17
2019-03-19T11:30:35.216Z,9.53
2019-03-19T11:33:05.150Z,7.47
2019-03-19T11:35:34.905Z,4.93
2019-03-19T11:38:05.290Z,4.53
2019-03-19T11:40:35.219Z,2.80
2019-03-19T11:43:05.508Z,6.08
2019-03-19T11:45:35.430Z,4.60
2019-03-19T11:48:05.456Z,8.30
2019-03-19T11:50:35.117Z,6.50
2019-03-19T11:53:05.873Z,5.42
2019-03-19T11:55:35.608Z,5.87
2019-03-19T11:58:05.485Z,7.90
2019-03-19T12:00:41.130Z,4.13
2019-03-19T12:03:15.811Z,4.13
2019-03-19T12:05:42.421Z,9.47
2019-03-19T12:08:12.168Z,6.58
2019-03-19T12:10:42.101Z,4.92
2019-03-19T12:13:13.135Z,7.90
2019-03-19T12:15:42.817Z,4.33
2019-03-19T12:18:12.474Z,5.33
2019-03-19T12:20:42.143Z,4.60
2019-03-19T12:23:11.832Z,7.70
2019-03-19T12:25:41.492Z,5.50
2019-03-19T12:28:11.157Z,4.85
2019-03-19T12:30:40.910Z,5.17
2019-03-19T12:33:10.645Z,5.33
2019-03-19T12:35:40.377Z,5.67
2019-03-19T12:38:10.191Z,7.20
2019-03-19T12:40:39.847Z,3.90
2019-03-19T12:43:09.820Z,6.97
2019-03-19T12:45:39.502Z,5.83
2019-03-19T12:48:09.401Z,7.63
2019-03-19T12:50:39.058Z,6.30
2019-03-19T12:53:08.734Z,6.07
2019-03-19T12:55:38.381Z,6.30
2019-03-19T12:58:08.331Z,6.83
2019-03-19T13:00:38.078Z,7.40
2019-03-19T13:03:07.732Z,5.27
2019-03-19T13:05:37.416Z,6.53
2019-03-19T13:08:07.083Z,4.60
2019-03-19T13:10:36.831Z,5.83
2019-03-19T13:13:06.558Z,6.63
2019-03-19T13:15:36.222Z,6.40
2019-03-19T13:18:06.266Z,5.40
2019-03-19T13:20:35.959Z,5.63
2019-03-19T13:23:05.697Z,6.17
2019-03-19T13:25:35.363Z,5.20
2019-03-19T13:28:05.408Z,4.87
2019-03-19T13:30:44.421Z,6.60
2019-03-19T13:33:06.767Z,6.73
2019-03-19T13:35:36.418Z,5.40
2019-03-19T13:38:06.243Z,6.73
2019-03-19T13:40:35.896Z,8.33
2019-03-19T13:43:05.648Z,6.50
2019-03-19T13:45:35.389Z,4.93
2019-03-19T13:48:05.335Z,7.60
2019-03-19T13:50:35.000Z,7.20
2019-03-19T13:53:05.392Z,4.97
2019-03-19T13:55:35.052Z,7.70
2019-03-19T13:58:04.835Z,8.10
2019-03-19T14:00:34.630Z,9.10
2019-03-19T14:03:05.171Z,7.35
2019-03-19T14:05:34.987Z,4.47
2019-03-19T14:08:05.394Z,7.28
2019-03-19T14:10:35.160Z,5.22
2019-03-19T14:13:05.797Z,5.33
2019-03-19T14:15:35.547Z,5.90
2019-03-19T14:18:05.376Z,6.33
2019-03-19T14:20:35.292Z,7.40
2019-03-19T14:23:05.253Z,5.62
2019-03-19T14:25:34.951Z,7.07
2019-03-19T14:28:05.375Z,5.77
2019-03-19T14:30:35.047Z,6.10
2019-03-19T14:33:04.996Z,7.40
2019-03-19T14:35:37.632Z,9.83
2019-03-19T14:38:06.347Z,4.87
2019-03-19T14:40:36.164Z,7.20
2019-03-19T14:43:06.948Z,6.53
2019-03-19T14:45:36.620Z,7.73
2019-03-19T14:48:06.459Z,5.97
2019-03-19T14:50:36.342Z,5.53
2019-03-19T14:53:06.103Z,8.60
2019-03-19T14:55:35.903Z,7.07
2019-03-19T14:58:05.778Z,8.97
2019-03-19T15:00:35.664Z,6.43
2019-03-19T15:03:05.479Z,6.83
2019-03-19T15:05:35.143Z,8.50
2019-03-19T15:08:05.067Z,9.30
2019-03-19T15:10:34.813Z,10.50
2019-03-19T15:13:05.412Z,8.45
2019-03-19T15:15:35.353Z,7.58
2019-03-19T15:18:05.354Z,7.90
2019-03-19T15:20:35.119Z,5.30
2019-03-19T15:23:05.118Z,8.83
2019-03-19T15:25:34.954Z,7.30
2019-03-19T15:28:05.330Z,7.83
2019-03-19T15:30:35.260Z,6.80
2019-03-19T15:33:05.075Z,6.07
2019-03-19T15:35:34.744Z,7.33
2019-03-19T15:38:05.176Z,8.60
2019-03-19T15:40:34.858Z,7.60
2019-03-19T15:43:05.189Z,9.78
2019-03-19T15:45:34.868Z,13.27
2019-03-19T15:48:05.207Z,9.03
2019-03-19T15:50:34.908Z,10.23
2019-03-19T15:53:05.045Z,7.50
2019-03-19T15:55:34.730Z,10.83
2019-03-19T15:58:05.185Z,10.47
2019-03-19T16:00:34.938Z,10.50
2019-03-19T16:03:05.337Z,9.18
2019-03-19T16:05:34.996Z,12.13
2019-03-19T16:08:05.425Z,16.55
2019-03-19T16:10:35.149Z,10.67
2019-03-19T16:13:05.072Z,7.67
2019-03-19T16:15:34.732Z,13.43
2019-03-19T16:18:05.296Z,7.67
2019-03-19T16:20:35.943Z,7.13
2019-03-19T16:23:05.766Z,6.73
2019-03-19T16:25:35.442Z,10.77
2019-03-19T16:28:05.247Z,7.37
2019-03-19T16:30:34.988Z,7.33
2019-03-19T16:33:05.708Z,9.23
2019-03-19T16:35:35.372Z,8.00
2019-03-19T16:38:05.211Z,9.23
2019-03-19T16:40:34.883Z,10.87
2019-03-19T16:43:05.155Z,10.53
2019-03-19T16:45:34.820Z,10.30
2019-03-19T16:48:05.168Z,8.83
2019-03-19T16:50:34.824Z,9.23
2019-03-19T16:53:05.496Z,11.83
2019-03-19T16:55:35.281Z,14.13
2019-03-19T16:58:05.196Z,14.95
2019-03-19T17:00:34.886Z,12.60
2019-03-19T17:03:05.706Z,11.20
2019-03-19T17:05:35.363Z,9.77
2019-03-19T17:08:05.053Z,8.30
2019-03-19T17:10:34.799Z,10.03
2019-03-19T17:13:05.254Z,10.13
2019-03-19T17:15:34.999Z,9.47
2019-03-19T17:18:05.020Z,8.73
2019-03-19T17:20:34.679Z,9.07
2019-03-19T17:23:05.319Z,7.73
2019-03-19T17:25:35.132Z,13.50
2019-03-19T17:28:05.472Z,11.08
2019-03-19T17:30:35.313Z,11.20
2019-03-19T17:33:05.634Z,10.98
2019-03-19T17:35:35.483Z,9.10
2019-03-19T17:38:05.333Z,16.27
2019-03-19T17:40:41.300Z,10.63
2019-03-19T17:43:06.611Z,13.90
2019-03-19T17:45:36.347Z,12.17
2019-03-19T17:48:15.635Z,10.25
2019-03-19T17:50:37.526Z,10.53
2019-03-19T17:53:07.230Z,10.47
2019-03-19T17:55:36.909Z,10.47
2019-03-19T17:58:06.730Z,9.00
2019-03-19T18:00:37.269Z,9.17
2019-03-19T18:03:07.008Z,10.25
2019-03-19T18:05:36.694Z,11.10
2019-03-19T18:08:06.486Z,10.50
2019-03-19T18:10:36.173Z,10.67
2019-03-19T18:13:06.718Z,9.37
2019-03-19T18:15:36.808Z,12.23
2019-03-19T18:18:06.541Z,8.27
2019-03-19T18:20:36.209Z,8.53
2019-03-19T18:23:06.222Z,11.23
2019-03-19T18:25:36.384Z,9.70
2019-03-19T18:28:06.193Z,11.07
2019-03-19T18:30:35.859Z,12.80
2019-03-19T18:33:05.700Z,14.27
2019-03-19T18:35:35.371Z,13.87
2019-03-19T18:38:05.467Z,16.77
2019-03-19T18:40:35.159Z,16.83
2019-03-19T18:43:05.387Z,16.97
2019-03-19T18:45:35.069Z,14.13
2019-03-19T18:48:05.007Z,13.20
2019-03-19T18:50:35.894Z,13.53
2019-03-19T18:53:05.733Z,10.93
2019-03-19T18:55:35.391Z,14.73
2019-03-19T18:58:05.304Z,12.37
2019-03-19T19:00:35.034Z,9.37
2019-03-19T19:03:05.206Z,9.08
2019-03-19T19:05:35.042Z,11.47
2019-03-19T19:08:05.092Z,11.37
2019-03-19T19:10:34.800Z,10.33
2019-03-19T19:13:05.255Z,9.30
2019-03-19T19:15:34.924Z,10.07
2019-03-19T19:18:04.955Z,12.45
2019-03-19T19:20:35.788Z,11.13
2019-03-19T19:23:05.537Z,14.00
2019-03-19T19:25:35.210Z,11.20
2019-03-19T19:28:05.292Z,13.08
2019-03-19T19:30:34.989Z,12.10
2019-03-19T19:33:05.076Z,11.85
2019-03-19T19:35:34.752Z,10.90
2019-03-19T19:38:05.303Z,11.73
2019-03-19T19:40:34.972Z,10.33
2019-03-19T19:43:05.087Z,11.08
2019-03-19T19:45:34.784Z,13.40
2019-03-19T19:48:04.973Z,16.90
2019-03-19T19:50:34.690Z,13.20
2019-03-19T19:53:04.990Z,20.45
2019-03-19T19:55:34.912Z,18.87
2019-03-19T19:58:05.175Z,18.35
2019-03-19T20:00:35.001Z,16.90
2019-03-19T20:03:12.211Z,17.50
2019-03-19T20:05:36.504Z,16.20
2019-03-19T20:08:06.186Z,15.83
2019-03-19T20:10:35.917Z,15.20
2019-03-19T20:13:05.755Z,15.83
2019-03-19T20:15:35.440Z,15.17
2019-03-19T20:18:05.294Z,15.43
2019-03-19T20:20:35.036Z,14.43
2019-03-19T20:23:05.173Z,15.50
2019-03-19T20:25:35.102Z,15.37
2019-03-19T20:28:05.141Z,13.60
2019-03-19T20:30:34.807Z,13.50
2019-03-19T20:33:05.336Z,13.40
2019-03-19T20:35:35.007Z,12.10
2019-03-19T20:38:05.201Z,14.30
2019-03-19T20:40:34.894Z,12.20
2019-03-19T20:43:04.761Z,12.63
2019-03-19T20:45:34.506Z,12.20
2019-03-19T20:48:05.167Z,11.57
2019-03-19T20:50:34.898Z,14.53
2019-03-19T20:53:05.181Z,13.30
2019-03-19T20:55:35.804Z,11.80
2019-03-19T20:58:05.872Z,12.03
2019-03-19T21:00:35.529Z,10.80
2019-03-19T21:03:05.640Z,12.27
2019-03-19T21:05:35.648Z,10.43
2019-03-19T21:08:05.328Z,13.27
2019-03-19T21:10:35.072Z,11.67
2019-03-19T21:13:05.154Z,13.97
2019-03-19T21:15:34.833Z,21.73
2019-03-19T21:18:05.171Z,23.55
2019-03-19T21:20:34.856Z,24.40
2019-03-19T21:23:05.285Z,24.70
2019-03-19T21:25:34.944Z,24.13
2019-03-19T21:28:13.557Z,18.87
2019-03-19T21:30:36.321Z,19.53
2019-03-19T21:33:06.009Z,18.17
2019-03-19T21:35:35.818Z,21.60
2019-03-19T21:38:05.510Z,21.97
2019-03-19T21:40:35.313Z,20.47
2019-03-19T21:43:05.061Z,20.00
2019-03-19T21:45:35.728Z,20.05
2019-03-19T21:48:05.404Z,20.40
2019-03-19T21:50:35.079Z,19.53
2019-03-19T21:53:05.025Z,19.37
2019-03-19T21:55:35.012Z,20.67
2019-03-19T21:58:05.143Z,21.23
2019-03-19T22:00:35.261Z,19.53
2019-03-19T22:03:05.089Z,23.60
2019-03-19T22:05:34.973Z,22.97
2019-03-19T22:08:05.048Z,23.70
2019-03-19T22:10:34.732Z,22.53
2019-03-19T22:13:04.886Z,23.90
2019-03-19T22:15:34.644Z,21.33
2019-03-19T22:18:04.960Z,25.67
2019-03-19T22:20:34.636Z,22.83
2019-03-19T22:23:05.264Z,24.40
2019-03-19T22:25:34.951Z,23.43
2019-03-19T22:28:05.291Z,25.20
2019-03-19T22:30:35.017Z,23.80
2019-03-19T22:33:05.084Z,25.47
2019-03-19T22:35:34.748Z,28.00
2019-03-19T22:38:05.484Z,23.67
2019-03-19T22:40:35.151Z,26.20
2019-03-19T22:43:04.908Z,29.13
2019-03-19T22:45:34.577Z,31.23
2019-03-19T22:48:05.289Z,29.33
2019-03-19T22:50:34.957Z,31.67
2019-03-19T22:53:05.116Z,29.57
2019-03-19T22:55:34.781Z,28.73
2019-03-19T22:58:05.096Z,29.25
2019-03-19T23:00:43.051Z,27.70
2019-03-19T23:03:14.479Z,26.27
2019-03-19T23:05:44.216Z,25.07
2019-03-19T23:08:14.001Z,23.67
2019-03-19T23:10:43.733Z,22.90
2019-03-19T23:13:13.742Z,27.00
2019-03-19T23:15:43.909Z,26.17
2019-03-19T23:18:13.586Z,26.43
2019-03-19T23:20:43.576Z,23.90
2019-03-19T23:23:13.260Z,25.90
2019-03-19T23:25:43.033Z,25.23
2019-03-19T23:28:12.856Z,24.53
2019-03-19T23:30:42.609Z,25.80
2019-03-19T23:33:13.249Z,27.77
2019-03-19T23:35:43.004Z,31.50
2019-03-19T23:38:12.677Z,23.42
2019-03-19T23:40:42.416Z,26.37
2019-03-19T23:43:12.093Z,24.30
2019-03-19T23:45:42.015Z,26.50
2019-03-19T23:48:11.753Z,23.10
2019-03-19T23:50:42.472Z,27.17
2019-03-19T23:53:13.660Z,26.33
2019-03-19T23:55:43.340Z,22.13
2019-03-19T23:58:13.098Z,26.00
